Time;durP1;ratioP1;P1;durP2;ratioP2;P2;SDS_P1;SDS_P2;PMS_P1;PMS_P2;Temp;Humidity;BMP_temperature;BMP_pressure;BME280_temperature;BME280_humidity;BME280_pressure;Samples;Min_cycle;Max_cycle;Signal;HPM_P1;HPM_P2
2022/03/20 00:00:39;;;;;;;15.80;13.77;;;5.30;96.90;;;;;;6100770;23;20212;-70
2022/03/20 00:03:07;;;;;;;17.65;15.10;;;5.30;96.70;;;;;;6118953;23;20205;-70
2022/03/20 00:05:38;;;;;;;15.65;14.05;;;5.30;96.50;;;;;;6119489;23;20183;-70
2022/03/20 00:08:08;;;;;;;16.70;14.50;;;5.30;96.40;;;;;;6102527;23;20218;-70
2022/03/20 00:10:36;;;;;;;16.15;14.45;;;5.20;96.20;;;;;;6109150;23;20187;-70
2022/03/20 00:13:05;;;;;;;17.00;15.15;;;5.20;96.30;;;;;;6096432;23;20211;-70
2022/03/20 00:15:33;;;;;;;16.38;14.77;;;5.30;96.40;;;;;;6105704;23;20634;-70
2022/03/20 00:18:00;;;;;;;15.95;14.30;;;5.30;96.20;;;;;;6108290;23;20211;-70
2022/03/20 00:20:28;;;;;;;17.00;13.82;;;5.30;95.90;;;;;;6104075;23;20290;-70
2022/03/20 00:22:56;;;;;;;15.23;13.68;;;5.20;95.80;;;;;;6101668;23;20266;-70
2022/03/20 00:25:23;;;;;;;16.67;14.40;;;5.20;95.90;;;;;;6098446;23;20518;-70
2022/03/20 00:27:51;;;;;;;15.60;14.05;;;5.20;95.70;;;;;;6109478;23;20214;-70
2022/03/20 00:30:18;;;;;;;16.65;14.20;;;5.20;95.70;;;;;;6112414;23;20183;-70
2022/03/20 00:32:46;;;;;;;15.98;14.38;;;5.20;95.60;;;;;;6107722;23;20180;-70
2022/03/20 00:35:13;;;;;;;16.13;14.50;;;5.20;95.40;;;;;;6091024;23;20195;-70
2022/03/20 00:37:40;;;;;;;15.27;13.68;;;5.20;95.30;;;;;;6110267;23;20204;-70
2022/03/20 00:40:08;;;;;;;15.25;13.70;;;5.10;95.40;;;;;;6108923;23;20230;-70
2022/03/20 00:42:35;;;;;;;16.40;14.00;;;5.10;95.70;;;;;;6102001;23;20224;-70
2022/03/20 00:45:02;;;;;;;16.20;14.43;;;5.10;95.40;;;;;;6112074;23;20183;-70
2022/03/20 00:47:29;;;;;;;16.10;14.50;;;5.10;95.40;;;;;;6111497;23;20207;-70
2022/03/20 00:49:57;;;;;;;16.73;15.05;;;5.10;95.40;;;;;;6101026;23;20270;-70
2022/03/20 00:52:25;;;;;;;16.48;14.70;;;5.00;95.40;;;;;;6113083;23;20191;-70
2022/03/20 00:54:52;;;;;;;15.88;14.20;;;5.10;95.50;;;;;;6100864;23;20219;-70
2022/03/20 00:57:19;;;;;;;15.30;13.70;;;5.10;95.50;;;;;;6093848;23;20204;-70
2022/03/20 00:59:46;;;;;;;15.13;13.52;;;5.10;95.50;;;;;;6111135;23;20279;-70
2022/03/20 01:02:14;;;;;;;17.50;14.02;;;5.10;95.30;;;;;;6096532;23;20227;-70
2022/03/20 01:04:41;;;;;;;15.25;13.65;;;5.10;95.40;;;;;;6102965;23;20185;-70
2022/03/20 01:07:09;;;;;;;15.70;14.10;;;5.10;95.40;;;;;;6100726;23;20212;-70
2022/03/20 01:09:37;;;;;;;16.08;14.45;;;5.10;95.40;;;;;;6112002;23;20187;-70
2022/03/20 01:12:06;;;;;;;16.90;15.15;;;5.10;95.50;;;;;;6105956;23;20186;-70
2022/03/20 01:14:34;;;;;;;16.30;14.55;;;5.10;95.50;;;;;;6093586;23;20188;-70
2022/03/20 01:17:01;;;;;;;14.73;13.15;;;5.10;95.50;;;;;;6113781;23;20207;-70
2022/03/20 01:19:31;;;;;;;16.08;14.05;;;5.10;95.30;;;;;;6115459;23;20189;-70
2022/03/20 01:21:59;;;;;;;15.85;13.75;;;5.10;95.30;;;;;;6092426;23;20267;-70
2022/03/20 01:24:29;;;;;;;15.23;13.73;;;5.10;95.50;;;;;;6092068;23;20196;-70
2022/03/20 01:26:57;;;;;;;14.88;13.35;;;5.10;95.50;;;;;;6094343;23;20204;-71
2022/03/20 01:29:24;;;;;;;14.80;13.30;;;5.20;95.80;;;;;;6094187;23;20180;-70
2022/03/20 01:31:51;;;;;;;15.90;14.23;;;5.20;95.50;;;;;;6094705;23;20238;-70
2022/03/20 01:34:18;;;;;;;15.57;13.98;;;5.20;95.50;;;;;;6091859;23;20184;-70
2022/03/20 01:36:46;;;;;;;15.75;14.13;;;5.20;95.50;;;;;;6102965;23;20212;-70
2022/03/20 01:39:13;;;;;;;16.85;14.40;;;5.20;95.60;;;;;;6116882;23;20205;-70
2022/03/20 01:41:43;;;;;;;15.82;14.32;;;5.30;95.50;;;;;;6106827;23;20212;-70
2022/03/20 01:44:10;;;;;;;16.08;14.50;;;5.30;95.60;;;;;;6095570;23;20267;-70
2022/03/20 01:46:37;;;;;;;16.42;14.45;;;5.30;95.70;;;;;;6116066;23;20242;-70
2022/03/20 01:49:04;;;;;;;18.08;15.10;;;5.40;95.80;;;;;;6107682;23;20213;-70
2022/03/20 01:54:16;;;;;;;15.60;14.13;;;5.50;95.50;;;;;;6095762;23;20643;-70
2022/03/20 01:56:48;;;;;;;17.27;15.48;;;5.40;95.60;;;;;;6103460;23;20207;-70
2022/03/20 01:59:16;;;;;;;17.20;15.40;;;5.30;95.70;;;;;;6110856;23;20180;-70
2022/03/20 02:01:44;;;;;;;15.50;13.93;;;5.30;95.90;;;;;;6110734;23;20200;-70
2022/03/20 02:04:14;;;;;;;16.85;15.15;;;5.20;96.00;;;;;;6104603;23;20180;-70
2022/03/20 02:06:41;;;;;;;15.48;13.88;;;5.20;96.10;;;;;;6104384;23;20216;-70
2022/03/20 02:09:09;;;;;;;16.25;14.55;;;5.20;96.30;;;;;;6114484;23;20210;-70
2022/03/20 02:11:36;;;;;;;16.40;14.70;;;5.20;96.50;;;;;;6099198;23;20190;-70
2022/03/20 02:14:05;;;;;;;15.63;13.95;;;5.10;96.50;;;;;;6110757;23;20192;-70
2022/03/20 02:16:33;;;;;;;15.48;13.90;;;5.10;96.40;;;;;;6104780;23;20210;-70
2022/03/20 02:19:00;;;;;;;16.27;14.57;;;5.10;96.30;;;;;;6114854;23;20190;-70
2022/03/20 02:21:39;;;;;;;17.10;15.23;;;5.10;96.50;;;;;;6118235;23;20244;-70
2022/03/20 02:24:21;;;;;;;16.15;14.50;;;5.00;96.40;;;;;;6092551;23;20188;-70
2022/03/20 02:26:48;;;;;;;16.35;14.65;;;5.00;96.50;;;;;;6095580;23;20222;-70
2022/03/20 02:29:15;;;;;;;16.73;14.90;;;5.00;96.70;;;;;;6103123;23;20180;-71
2022/03/20 02:31:42;;;;;;;17.85;15.95;;;5.00;97.10;;;;;;6092948;23;20196;-70
2022/03/20 02:34:09;;;;;;;15.93;14.40;;;5.00;97.30;;;;;;6112749;23;20598;-70
2022/03/20 02:36:39;;;;;;;16.52;14.82;;;4.90;97.30;;;;;;6103427;23;20278;-70
2022/03/20 02:39:06;;;;;;;15.38;13.85;;;4.90;97.30;;;;;;6114289;23;20242;-69
2022/03/20 02:41:33;;;;;;;17.25;15.27;;;4.90;97.20;;;;;;6095088;23;20215;-70
2022/03/20 02:44:02;;;;;;;16.63;14.93;;;4.90;97.20;;;;;;6114673;23;20191;-70
2022/03/20 02:46:31;;;;;;;16.75;15.05;;;4.90;96.80;;;;;;6103915;23;20207;-70
2022/03/20 02:49:00;;;;;;;15.50;13.95;;;4.90;96.70;;;;;;6103430;23;20180;-70
2022/03/20 02:51:27;;;;;;;16.90;15.10;;;4.90;96.50;;;;;;6099466;23;20186;-70
2022/03/20 02:53:55;;;;;;;17.17;15.32;;;4.90;96.30;;;;;;6113961;23;20198;-70
2022/03/20 02:56:22;;;;;;;16.73;15.02;;;4.90;96.20;;;;;;6106751;23;20663;-70
2022/03/20 02:58:49;;;;;;;16.15;14.43;;;4.90;96.40;;;;;;6097868;23;20259;-70
2022/03/20 03:01:17;;;;;;;16.45;14.75;;;5.00;96.50;;;;;;6111936;23;20674;-70
2022/03/20 03:03:45;;;;;;;16.63;14.88;;;5.00;96.80;;;;;;6103038;23;20655;-70
2022/03/20 03:06:13;;;;;;;18.33;15.07;;;5.00;96.90;;;;;;6108632;23;20300;-70
2022/03/20 03:11:26;;;;;;;15.75;14.05;;;5.00;97.30;;;;;;6105016;23;20267;-70
2022/03/20 03:13:53;;;;;;;17.00;15.20;;;5.00;97.40;;;;;;6097245;23;20180;-70
2022/03/20 03:16:20;;;;;;;17.02;14.55;;;4.90;97.30;;;;;;6111411;23;20211;-70
2022/03/20 03:18:48;;;;;;;16.63;14.93;;;5.00;97.50;;;;;;6090591;23;20592;-70
2022/03/20 03:21:17;;;;;;;16.60;14.90;;;5.00;97.50;;;;;;6099676;23;20218;-70
2022/03/20 03:23:44;;;;;;;16.85;15.05;;;5.00;97.40;;;;;;6118442;23;20365;-70
2022/03/20 03:26:13;;;;;;;17.02;15.27;;;5.00;97.20;;;;;;6094134;23;20564;-70
2022/03/20 03:28:41;;;;;;;16.58;14.88;;;4.90;97.50;;;;;;6103775;23;20542;-70
2022/03/20 03:31:10;;;;;;;18.55;15.30;;;4.90;97.70;;;;;;6104051;23;20277;-70
2022/03/20 03:35:41;;;;;;;18.23;15.13;;;4.90;98.00;;;;;;6091800;23;20738;-70
2022/03/20 03:36:25;;;;;;;19.60;15.75;;;4.80;98.10;;;;;;6113443;23;20272;-70
2022/03/20 03:38:52;;;;;;;17.38;15.57;;;4.80;98.50;;;;;;6120794;23;20236;-70
2022/03/20 03:41:20;;;;;;;18.17;15.50;;;4.70;98.80;;;;;;6111636;23;20704;-70
2022/03/20 03:43:49;;;;;;;17.20;15.40;;;4.60;99.00;;;;;;6093597;23;20191;-70
2022/03/20 03:46:16;;;;;;;17.55;15.75;;;4.50;99.10;;;;;;6096411;23;20210;-70
2022/03/20 03:48:43;;;;;;;17.25;15.45;;;4.50;99.20;;;;;;6099117;23;20210;-70
2022/03/20 03:51:10;;;;;;;16.92;14.77;;;4.40;99.30;;;;;;6104868;23;20225;-70
2022/03/20 03:53:37;;;;;;;18.60;15.85;;;4.40;99.40;;;;;;6117200;23;20186;-70
2022/03/20 03:56:04;;;;;;;18.00;16.15;;;4.30;99.40;;;;;;6109477;23;20217;-70
2022/03/20 03:58:32;;;;;;;15.50;14.00;;;4.30;99.50;;;;;;6098763;23;20229;-70
2022/03/20 04:01:00;;;;;;;17.73;15.77;;;4.30;99.70;;;;;;6097064;23;20249;-70
2022/03/20 04:03:27;;;;;;;17.15;15.35;;;4.30;99.80;;;;;;6111293;23;20182;-70
2022/03/20 04:05:55;;;;;;;17.38;15.55;;;4.30;99.90;;;;;;6106626;23;20191;-71
2022/03/20 04:08:22;;;;;;;18.50;16.52;;;4.30;99.90;;;;;;6104826;23;20196;-70
2022/03/20 04:10:49;;;;;;;18.42;16.55;;;4.30;99.90;;;;;;6108035;23;20277;-70
2022/03/20 04:13:16;;;;;;;17.98;16.02;;;4.30;99.90;;;;;;6104457;23;20190;-70
2022/03/20 04:15:42;;;;;;;18.58;16.48;;;4.30;99.90;;;;;;6108478;23;20197;-70
2022/03/20 04:18:12;;;;;;;17.70;15.82;;;4.30;99.90;;;;;;6099656;23;20263;-70
2022/03/20 04:20:39;;;;;;;18.52;16.17;;;4.40;99.90;;;;;;6113407;23;20296;-70
2022/03/20 04:26:05;;;;;;;18.80;16.45;;;4.30;99.90;;;;;;6047033;23;20212;-70
2022/03/20 04:28:32;;;;;;;20.25;18.02;;;4.40;99.90;;;;;;6045990;23;20643;-70
2022/03/20 04:30:59;;;;;;;18.35;16.45;;;4.30;99.90;;;;;;6072535;23;20194;-70
2022/03/20 04:33:29;;;;;;;17.63;15.77;;;4.30;99.90;;;;;;6098565;23;20186;-70
2022/03/20 04:35:56;;;;;;;19.63;17.52;;;4.30;99.90;;;;;;6116077;23;20221;-70
2022/03/20 04:38:23;;;;;;;18.67;16.60;;;4.40;99.90;;;;;;6115542;23;20194;-70
2022/03/20 04:40:51;;;;;;;19.60;16.17;;;4.30;99.90;;;;;;6109178;23;20749;-70
2022/03/20 04:43:18;;;;;;;19.25;17.15;;;4.30;99.90;;;;;;6108528;23;20298;-70
2022/03/20 04:45:45;;;;;;;19.70;17.45;;;4.30;99.90;;;;;;6110414;23;20266;-69
2022/03/20 04:59:11;;;;;;;19.85;16.70;;;4.30;99.90;;;;;;6093063;23;20191;-70
2022/03/20 05:01:39;;;;;;;22.20;18.25;;;4.30;99.90;;;;;;6105060;23;20298;-70
2022/03/20 05:04:06;;;;;;;18.75;16.75;;;4.30;99.90;;;;;;6111676;23;20218;-70
2022/03/20 05:06:35;;;;;;;19.23;16.98;;;4.30;99.90;;;;;;6092195;23;20369;-69
2022/03/20 05:14:27;;;;;;;20.75;16.98;;;4.30;99.90;;;;;;6111413;23;20543;-70
2022/03/20 05:16:54;;;;;;;17.85;16.05;;;4.40;99.90;;;;;;6116730;23;20290;-70
2022/03/20 05:19:21;;;;;;;19.17;17.15;;;4.40;99.90;;;;;;6107465;23;20286;-70
2022/03/20 05:21:50;;;;;;;20.90;18.67;;;4.50;99.90;;;;;;6091090;23;20235;-70
2022/03/20 05:24:17;;;;;;;19.83;17.73;;;4.50;99.90;;;;;;6102540;23;20192;-71
2022/03/20 05:26:44;;;;;;;19.10;16.98;;;4.50;99.90;;;;;;6098701;23;20216;-70
2022/03/20 05:29:11;;;;;;;20.08;17.55;;;4.60;99.90;;;;;;6096430;23;20187;-71
2022/03/20 05:31:38;;;;;;;19.45;17.35;;;4.60;99.90;;;;;;6101691;23;20189;-70
2022/03/20 05:34:05;;;;;;;20.20;17.98;;;4.60;99.90;;;;;;6101766;23;20303;-71
2022/03/20 05:36:32;;;;;;;20.38;16.98;;;4.70;99.90;;;;;;6101026;23;20287;-70
2022/03/20 05:39:00;;;;;;;18.73;16.83;;;4.70;99.90;;;;;;6111619;23;20186;-70
2022/03/20 05:44:22;;;;;;;18.77;16.75;;;4.80;99.90;;;;;;6060876;23;20191;-71
2022/03/20 05:46:50;;;;;;;20.27;17.38;;;4.80;99.90;;;;;;6090796;23;20200;-71
2022/03/20 05:49:18;;;;;;;20.48;17.95;;;4.80;99.90;;;;;;6090846;23;20188;-70
2022/03/20 05:51:46;;;;;;;20.10;17.90;;;4.80;99.90;;;;;;6107192;23;20559;-71
2022/03/20 05:54:16;;;;;;;22.10;18.13;;;4.90;99.90;;;;;;6097078;23;20185;-72
2022/03/20 05:59:28;;;;;;;20.17;18.08;;;4.90;99.90;;;;;;6098775;23;20266;-69
2022/03/20 06:01:56;;;;;;;20.73;18.60;;;4.90;99.90;;;;;;6108175;23;20338;-70
2022/03/20 06:04:24;;;;;;;19.20;17.08;;;4.90;99.90;;;;;;6102345;23;20207;-70
2022/03/20 06:06:51;;;;;;;22.60;19.67;;;5.00;99.90;;;;;;6107154;23;20265;-69
2022/03/20 06:09:19;;;;;;;21.13;18.38;;;5.00;99.90;;;;;;6098573;23;20201;-70
2022/03/20 06:11:46;;;;;;;21.08;18.88;;;5.10;99.90;;;;;;6105297;23;21151;-70
2022/03/20 06:14:13;;;;;;;22.30;19.00;;;5.20;99.90;;;;;;6102918;23;20184;-70
2022/03/20 06:16:40;;;;;;;21.95;19.20;;;5.30;99.90;;;;;;6116444;23;20287;-70
2022/03/20 06:19:09;;;;;;;21.45;19.25;;;5.40;99.90;;;;;;6093983;23;20195;-70
2022/03/20 06:21:38;;;;;;;23.08;20.65;;;5.50;99.90;;;;;;6095427;23;20284;-70
2022/03/20 06:24:06;;;;;;;21.38;19.15;;;5.60;99.90;;;;;;6089521;23;20203;-70
2022/03/20 06:26:34;;;;;;;22.63;20.23;;;5.70;99.90;;;;;;6092328;23;20227;-70
2022/03/20 06:29:02;;;;;;;21.30;19.02;;;5.80;99.90;;;;;;6097458;23;20259;-70
2022/03/20 06:31:29;;;;;;;21.65;19.35;;;5.90;99.90;;;;;;6106292;23;20218;-70
2022/03/20 06:33:56;;;;;;;20.67;18.55;;;6.00;99.90;;;;;;6110179;23;20210;-70
2022/03/20 06:36:23;;;;;;;20.23;18.13;;;6.20;99.90;;;;;;6099853;23;20200;-70
2022/03/20 06:38:50;;;;;;;20.27;18.17;;;6.40;99.90;;;;;;6102699;23;20180;-70
2022/03/20 06:41:17;;;;;;;20.92;18.73;;;6.50;99.90;;;;;;6115451;23;20282;-70
2022/03/20 06:43:46;;;;;;;20.90;18.70;;;6.50;99.90;;;;;;6109586;23;20181;-69
2022/03/20 06:46:13;;;;;;;22.27;19.38;;;6.70;99.90;;;;;;6092806;23;20201;-70
2022/03/20 06:48:40;;;;;;;21.50;19.40;;;7.00;99.90;;;;;;6097655;23;20226;-70
2022/03/20 06:51:07;;;;;;;22.90;20.45;;;7.30;99.90;;;;;;6099484;23;20596;-70
2022/03/20 06:53:34;;;;;;;22.13;19.65;;;7.50;99.90;;;;;;6099500;23;20208;-70
2022/03/20 06:56:01;;;;;;;23.02;20.60;;;7.70;99.60;;;;;;6090341;23;20264;-71
2022/03/20 06:58:28;;;;;;;21.70;19.55;;;7.90;99.30;;;;;;6092341;23;20689;-70
2022/03/20 07:00:57;;;;;;;22.35;19.95;;;8.10;99.10;;;;;;6093675;23;20188;-71
2022/03/20 07:03:24;;;;;;;22.30;19.38;;;8.20;98.80;;;;;;6104964;23;20204;-71
2022/03/20 07:05:51;;;;;;;21.52;19.23;;;8.50;98.60;;;;;;6099504;23;20188;-71
2022/03/20 07:08:18;;;;;;;21.20;19.05;;;8.70;98.30;;;;;;6107806;23;20190;-71
2022/03/20 07:10:45;;;;;;;23.33;21.08;;;8.80;98.00;;;;;;6101083;23;20187;-71
2022/03/20 07:15:59;;;;;;;21.98;19.67;;;9.30;97.80;;;;;;6096268;23;20710;-71
2022/03/20 07:18:26;;;;;;;22.73;20.33;;;9.60;97.20;;;;;;6094851;23;20192;-70
2022/03/20 07:20:54;;;;;;;22.95;20.65;;;10.00;95.80;;;;;;6099774;23;20180;-70
2022/03/20 07:23:22;;;;;;;21.30;19.05;;;10.30;95.30;;;;;;6099958;23;20498;-71
2022/03/20 07:31:20;;;;;;;22.48;20.08;;;10.80;94.30;;;;;;6102786;23;20647;-71
2022/03/20 07:33:48;;;;;;;22.45;20.25;;;11.10;93.80;;;;;;6107455;23;20209;-71
2022/03/20 07:36:15;;;;;;;22.88;20.63;;;11.50;93.20;;;;;;6097578;23;20635;-71
2022/03/20 07:38:44;;;;;;;22.95;20.70;;;11.90;91.80;;;;;;6099323;23;20199;-71
2022/03/20 07:41:11;;;;;;;23.08;20.95;;;12.10;91.50;;;;;;6098383;23;20216;-71
2022/03/20 07:43:37;;;;;;;23.75;21.25;;;12.30;90.70;;;;;;6094942;23;20204;-71
2022/03/20 07:46:06;;;;;;;23.98;21.58;;;12.50;90.20;;;;;;6104316;23;20202;-74
2022/03/20 07:48:35;;;;;;;23.08;20.90;;;12.60;89.00;;;;;;6103952;23;20222;-71
2022/03/20 07:51:02;;;;;;;22.75;20.40;;;12.50;87.80;;;;;;6108171;23;20229;-73
2022/03/20 07:53:30;;;;;;;20.35;18.35;;;12.40;87.20;;;;;;6091374;23;20749;-70
2022/03/20 07:55:57;;;;;;;22.42;20.30;;;12.50;89.50;;;;;;6099789;23;20187;-70
2022/03/20 07:58:24;;;;;;;24.17;21.88;;;12.70;87.00;;;;;;6099150;23;20190;-71
2022/03/20 08:00:51;;;;;;;22.65;20.35;;;12.90;85.90;;;;;;6094233;23;20180;-71
2022/03/20 08:03:18;;;;;;;22.63;20.42;;;13.20;85.50;;;;;;6097186;23;20233;-71
2022/03/20 08:05:46;;;;;;;21.60;19.60;;;13.20;85.20;;;;;;6100728;23;20205;-71
2022/03/20 08:08:16;;;;;;;23.05;20.80;;;13.60;84.00;;;;;;6093851;23;20306;-71
2022/03/20 08:10:43;;;;;;;22.52;20.48;;;13.70;83.50;;;;;;6093604;23;20180;-71
2022/03/20 08:13:11;;;;;;;24.08;21.67;;;13.80;82.40;;;;;;6093130;23;20208;-71
2022/03/20 08:15:39;;;;;;;22.58;20.38;;;14.10;82.00;;;;;;6091474;23;20184;-72
2022/03/20 08:18:07;;;;;;;23.50;21.30;;;14.40;81.10;;;;;;6094363;23;20706;-71
2022/03/20 08:20:34;;;;;;;22.70;20.60;;;14.80;79.00;;;;;;6103376;23;20453;-71
2022/03/20 08:23:04;;;;;;;22.10;19.77;;;15.00;76.60;;;;;;6097140;23;20505;-71
2022/03/20 08:25:31;;;;;;;22.70;20.60;;;14.80;75.50;;;;;;6095310;23;20208;-72
2022/03/20 08:27:58;;;;;;;22.77;20.63;;;15.00;75.30;;;;;;6101597;23;20940;-72
2022/03/20 08:30:25;;;;;;;23.00;20.90;;;15.20;74.70;;;;;;6100290;23;20435;-71
2022/03/20 08:32:53;;;;;;;23.03;20.63;;;15.40;74.30;;;;;;6087032;23;20581;-72
2022/03/20 08:35:21;;;;;;;22.83;20.43;;;15.50;73.50;;;;;;6096309;23;20521;-72
2022/03/20 08:37:52;;;;;;;23.03;20.97;;;15.60;72.50;;;;;;6101967;23;20511;-72
2022/03/20 08:40:22;;;;;;;22.63;20.53;;;15.50;72.60;;;;;;6092455;23;20438;-72
2022/03/20 08:42:52;;;;;;;24.63;22.30;;;15.80;73.00;;;;;;6102643;23;20970;-72
2022/03/20 08:45:20;;;;;;;23.70;21.40;;;16.00;72.20;;;;;;6099871;23;20548;-72
2022/03/20 08:47:48;;;;;;;22.80;20.67;;;16.10;70.20;;;;;;6098396;23;20484;-71
2022/03/20 08:50:17;;;;;;;22.63;20.43;;;15.90;70.50;;;;;;6095495;23;20443;-72
2022/03/20 08:52:45;;;;;;;23.67;21.47;;;16.00;68.90;;;;;;6100875;23;20996;-73
2022/03/20 08:55:12;;;;;;;22.97;20.80;;;16.50;67.90;;;;;;6096168;23;20437;-73
2022/03/20 08:57:42;;;;;;;21.80;19.87;;;16.40;66.20;;;;;;6102113;23;20454;-72
2022/03/20 09:00:11;;;;;;;23.70;21.40;;;16.50;66.10;;;;;;6100257;23;20451;-73
2022/03/20 09:02:38;;;;;;;22.87;20.67;;;16.60;65.40;;;;;;6100219;23;20473;-73
2022/03/20 09:05:07;;;;;;;23.47;21.37;;;16.90;64.60;;;;;;6101808;23;20450;-71
2022/03/20 09:07:34;;;;;;;26.00;23.57;;;17.50;64.20;;;;;;6097397;23;20451;-71
2022/03/20 09:10:01;;;;;;;23.73;21.53;;;17.70;62.90;;;;;;6096533;23;21154;-74
2022/03/20 09:12:29;;;;;;;23.67;21.50;;;17.50;61.00;;;;;;6097336;23;20468;-73
2022/03/20 09:14:57;;;;;;;22.80;20.60;;;17.10;61.90;;;;;;6091896;23;20440;-73
2022/03/20 09:20:09;;;;;;;25.23;22.80;;;16.90;61.50;;;;;;6099917;23;20942;-73
2022/03/20 09:22:35;;;;;;;23.80;21.53;;;16.80;61.90;;;;;;6091751;23;20817;-73
2022/03/20 09:25:03;;;;;;;24.30;21.90;;;17.00;62.20;;;;;;6097297;23;20454;-74
2022/03/20 09:27:30;;;;;;;23.60;21.30;;;17.20;61.00;;;;;;6101068;23;20449;-75
2022/03/20 09:29:58;;;;;;;23.10;21.00;;;17.40;60.20;;;;;;6104975;23;21204;-74
2022/03/20 09:32:25;;;;;;;23.40;21.07;;;17.60;60.50;;;;;;6103362;23;20807;-72
2022/03/20 09:34:52;;;;;;;24.23;21.93;;;17.90;60.70;;;;;;6098448;23;20948;-72
2022/03/20 09:37:19;;;;;;;23.23;21.13;;;18.20;59.00;;;;;;6104725;23;21011;-72
2022/03/20 09:39:46;;;;;;;23.13;21.03;;;18.20;58.40;;;;;;6099234;23;20529;-72
2022/03/20 09:42:14;;;;;;;22.60;20.60;;;18.50;59.20;;;;;;6101861;23;20461;-73
2022/03/20 09:44:42;;;;;;;21.80;19.80;;;18.80;57.50;;;;;;6099410;23;20441;-72
2022/03/20 09:47:17;;;;;;;22.80;20.80;;;19.20;57.80;;;;;;6091682;23;20462;-72
2022/03/20 09:49:45;;;;;;;24.30;21.90;;;19.50;56.80;;;;;;6100553;23;20436;-72
2022/03/20 09:52:12;;;;;;;23.87;21.77;;;19.70;56.10;;;;;;6106357;23;20938;-73
2022/03/20 09:54:39;;;;;;;22.93;20.83;;;20.00;55.20;;;;;;6092648;23;20452;-76
2022/03/20 09:57:09;;;;;;;22.97;20.90;;;19.90;55.30;;;;;;6095205;23;20450;-73
2022/03/20 09:59:39;;;;;;;22.90;20.83;;;20.20;54.90;;;;;;6100743;23;20975;-73
2022/03/20 10:02:08;;;;;;;22.23;20.23;;;20.70;54.70;;;;;;6101373;23;20461;-73
2022/03/20 10:04:54;;;;;;;23.23;21.13;;;21.10;53.80;;;;;;6105887;23;20440;-73
2022/03/20 10:07:22;;;;;;;22.33;20.43;;;21.30;52.50;;;;;;6102135;23;20486;-73
2022/03/20 10:10:11;;;;;;;22.20;20.30;;;21.50;52.40;;;;;;6104940;23;20441;-72
2022/03/20 10:12:41;;;;;;;22.07;20.17;;;21.00;52.00;;;;;;6101983;23;20549;-72
2022/03/20 10:15:10;;;;;;;22.73;20.83;;;20.90;52.10;;;;;;6109912;23;20471;-73
2022/03/20 10:17:39;;;;;;;22.97;20.97;;;20.80;52.40;;;;;;6102716;23;20447;-74
2022/03/20 10:20:18;;;;;;;22.53;20.40;;;21.10;52.20;;;;;;6097465;23;20484;-73
2022/03/20 10:22:45;;;;;;;22.40;20.33;;;21.60;52.60;;;;;;6093009;23;20509;-72
2022/03/20 10:25:17;;;;;;;24.67;22.47;;;22.30;51.00;;;;;;6101269;23;20785;-72
2022/03/20 10:27:57;;;;;;;22.10;20.10;;;22.30;51.00;;;;;;6104108;23;20422;-72
2022/03/20 10:30:24;;;;;;;22.40;20.40;;;22.20;51.20;;;;;;6102785;23;20437;-73
2022/03/20 10:32:52;;;;;;;22.50;20.60;;;22.60;50.70;;;;;;6099007;23;20547;-82
2022/03/20 10:35:20;;;;;;;21.20;19.30;;;22.40;50.60;;;;;;6106056;23;20448;-82
2022/03/20 10:37:52;;;;;;;23.63;21.47;;;22.30;51.20;;;;;;6099697;23;20434;-82
2022/03/20 10:40:21;;;;;;;21.43;19.60;;;21.80;51.20;;;;;;6098309;23;20816;-74
2022/03/20 10:43:07;;;;;;;20.13;18.37;;;21.40;52.00;;;;;;6108871;23;20483;-75
2022/03/20 10:46:00;;;;;;;20.37;18.50;;;21.20;53.20;;;;;;6100439;23;20533;-75
2022/03/20 10:48:38;;;;;;;22.53;20.60;;;21.10;53.90;;;;;;6092357;23;20442;-74
2022/03/20 10:51:08;;;;;;;23.30;21.00;;;20.00;52.90;;;;;;6096436;23;20457;-75
2022/03/20 10:53:36;;;;;;;21.87;19.57;;;19.40;53.40;;;;;;6092973;23;20450;-75
2022/03/20 10:56:08;;;;;;;21.77;19.77;;;19.10;54.10;;;;;;6098079;23;20474;-74
2022/03/20 10:58:38;;;;;;;20.97;18.97;;;19.30;55.00;;;;;;6092339;23;20435;-75
2022/03/20 11:01:07;;;;;;;20.37;18.47;;;19.70;55.40;;;;;;6102444;23;20537;-74
2022/03/20 11:03:36;;;;;;;18.70;17.00;;;19.80;54.90;;;;;;6093083;23;20471;-75
2022/03/20 11:06:07;;;;;;;19.07;17.37;;;19.70;56.20;;;;;;6099632;23;20437;-75
2022/03/20 11:08:37;;;;;;;18.90;17.20;;;19.60;56.30;;;;;;6096257;23;20451;-75
2022/03/20 11:11:06;;;;;;;19.37;17.50;;;19.70;56.20;;;;;;6100435;23;20470;-75
2022/03/20 11:13:35;;;;;;;19.30;17.60;;;19.60;56.90;;;;;;6097960;23;20439;-75
2022/03/20 11:16:05;;;;;;;18.37;16.70;;;19.80;57.20;;;;;;6096237;23;20476;-75
2022/03/20 11:18:35;;;;;;;18.13;16.43;;;20.30;57.60;;;;;;6093779;23;20530;-75
2022/03/20 11:21:05;;;;;;;17.93;16.20;;;20.90;56.90;;;;;;6098700;23;20454;-75
2022/03/20 11:23:35;;;;;;;18.53;17.00;;;21.50;56.10;;;;;;6095793;23;20871;-75
2022/03/20 11:26:04;;;;;;;17.97;16.27;;;21.80;55.40;;;;;;6095737;23;20442;-75
2022/03/20 11:28:43;;;;;;;17.63;16.03;;;22.00;56.50;;;;;;6091175;23;20444;-75
2022/03/20 11:31:11;;;;;;;19.60;17.60;;;22.90;55.90;;;;;;6096972;23;20473;-75
2022/03/20 11:33:39;;;;;;;17.27;15.73;;;23.00;53.60;;;;;;6090929;23;20544;-75
2022/03/20 11:36:06;;;;;;;18.77;16.87;;;22.70;54.10;;;;;;6101141;23;20484;-75
2022/03/20 11:38:36;;;;;;;18.27;16.67;;;22.30;54.50;;;;;;6107955;23;20958;-75
2022/03/20 11:41:08;;;;;;;17.73;16.23;;;21.50;54.60;;;;;;6098293;23;20489;-75
2022/03/20 11:43:37;;;;;;;17.97;16.37;;;20.70;55.60;;;;;;6096966;23;20477;-75
2022/03/20 11:46:28;;;;;;;16.70;15.03;;;20.00;56.40;;;;;;6099404;23;20545;-75
2022/03/20 11:49:20;;;;;;;19.10;15.73;;;19.50;56.90;;;;;;6110293;23;21455;-73
2022/03/20 11:52:14;;;;;;;16.83;15.20;;;19.00;59.00;;;;;;6099595;23;21201;-73
2022/03/20 11:54:57;;;;;;;14.90;13.40;;;19.10;60.80;;;;;;6080350;23;20540;-71
2022/03/20 11:57:42;;;;;;;16.97;15.30;;;19.40;60.20;;;;;;6099775;23;20445;-76
2022/03/20 12:00:15;;;;;;;16.47;14.87;;;20.00;59.00;;;;;;6109023;23;21074;-79
2022/03/20 12:02:59;;;;;;;16.70;15.10;;;20.70;57.70;;;;;;6100392;23;20483;-79
2022/03/20 12:05:54;;;;;;;16.77;15.07;;;21.80;56.90;;;;;;6089797;23;20450;-79
2022/03/20 12:08:36;;;;;;;18.33;16.73;;;23.00;55.70;;;;;;6100671;23;20525;-79
2022/03/20 12:11:18;;;;;;;19.03;17.33;;;24.40;54.40;;;;;;6105358;23;20473;-79
2022/03/20 12:13:56;;;;;;;19.00;17.40;;;25.50;53.20;;;;;;6095113;23;20443;-79
2022/03/20 12:16:54;;;;;;;18.33;16.73;;;26.80;51.10;;;;;;6090748;23;20448;-80
2022/03/20 12:19:22;;;;;;;18.73;17.07;;;27.70;49.60;;;;;;6073251;23;20441;-79
2022/03/20 12:21:57;;;;;;;20.20;17.80;;;28.50;48.10;;;;;;6097603;23;20495;-80
2022/03/20 12:24:46;;;;;;;17.83;16.33;;;28.90;46.80;;;;;;6094692;23;20556;-80
2022/03/20 12:27:48;;;;;;;17.80;16.10;;;29.30;44.80;;;;;;6100436;23;20445;-80
2022/03/20 12:30:40;;;;;;;19.00;17.30;;;29.50;44.60;;;;;;6098485;23;20941;-80
2022/03/20 12:33:25;;;;;;;17.23;15.70;;;29.30;44.10;;;;;;6099011;23;20487;-80
2022/03/20 12:35:53;;;;;;;17.77;16.37;;;29.00;43.80;;;;;;6092717;23;21320;-80
2022/03/20 12:38:35;;;;;;;17.40;16.00;;;28.40;43.60;;;;;;6085195;23;20446;-79
2022/03/20 12:41:17;;;;;;;19.50;17.80;;;27.20;44.90;;;;;;6095278;23;20454;-80
2022/03/20 12:43:57;;;;;;;19.27;17.63;;;27.00;45.70;;;;;;6094093;23;20475;-80
2022/03/20 12:46:26;;;;;;;18.27;16.63;;;26.80;45.40;;;;;;6091445;23;20444;-81
2022/03/20 12:48:55;;;;;;;17.33;15.93;;;26.60;45.10;;;;;;6098773;23;20430;-80
2022/03/20 12:51:36;;;;;;;17.40;16.03;;;26.20;45.30;;;;;;6093781;23;20485;-81
2022/03/20 12:54:13;;;;;;;17.43;15.90;;;25.20;45.20;;;;;;6101209;23;20530;-80
2022/03/20 12:56:54;;;;;;;15.33;14.03;;;24.20;46.30;;;;;;6105097;23;20456;-81
2022/03/20 12:59:22;;;;;;;16.93;15.23;;;23.90;46.30;;;;;;6101972;23;20437;-81
2022/03/20 13:01:51;;;;;;;14.97;13.27;;;23.50;46.90;;;;;;6092991;23;20527;-81
2022/03/20 13:04:19;;;;;;;15.03;13.73;;;23.40;47.10;;;;;;6093368;23;20472;-81
2022/03/20 13:06:46;;;;;;;15.40;14.10;;;23.70;46.90;;;;;;6102954;23;21013;-81
2022/03/20 13:09:14;;;;;;;14.80;13.33;;;23.90;47.40;;;;;;6101430;23;20462;-81
2022/03/20 13:11:56;;;;;;;14.47;13.23;;;23.80;46.80;;;;;;6103799;23;20544;-79
2022/03/20 13:14:24;;;;;;;14.90;13.70;;;23.90;46.90;;;;;;6102368;23;21171;-79
2022/03/20 13:16:54;;;;;;;14.30;12.80;;;23.70;47.40;;;;;;6093491;23;20465;-80
2022/03/20 13:19:32;;;;;;;14.03;12.93;;;24.20;46.90;;;;;;6093063;23;22021;-81
2022/03/20 13:22:03;;;;;;;15.07;13.60;;;24.60;46.50;;;;;;6096495;23;20501;-83
2022/03/20 13:24:32;;;;;;;16.17;14.77;;;24.90;45.80;;;;;;6102214;23;20469;-85
2022/03/20 13:27:01;;;;;;;15.23;14.00;;;24.40;45.50;;;;;;6102831;23;20490;-79